Time;durP1;ratioP1;P1;durP2;ratioP2;P2;SDS_P1;SDS_P2;PMS_P1;PMS_P2;Temp;Humidity;BMP_temperature;BMP_pressure;BME280_temperature;BME280_humidity;BME280_pressure;Samples;Min_cycle;Max_cycle;Signal;HPM_P1;HPM_P2
2022/09/01 00:01:57;;;;;;;7.00;3.60;;;;;;;16.54;66.50;96044.25;10340857;28;97923;-62
2022/09/01 00:07:01;;;;;;;6.35;3.78;;;;;;;16.41;66.94;96048.38;10363925;28;98635;-62
2022/09/01 00:12:06;;;;;;;6.87;4.10;;;;;;;16.33;67.12;96050.31;10367468;28;99766;-62
2022/09/01 00:17:12;;;;;;;6.10;3.92;;;;;;;16.31;66.81;96047.91;10369551;28;96727;-63
2022/09/01 00:22:16;;;;;;;6.75;3.60;;;;;;;16.19;67.30;96050.22;10346236;28;99750;-62
2022/09/01 00:27:19;;;;;;;5.70;3.23;;;;;;;16.05;67.68;96037.88;10378191;28;96698;-62
2022/09/01 00:32:29;;;;;;;4.50;3.80;;;;;;;15.95;68.17;96018.97;10379542;28;96654;-62
2022/09/01 00:37:33;;;;;;;7.43;3.85;;;;;;;15.86;68.23;96031.44;10380420;28;97176;-62
2022/09/01 00:42:36;;;;;;;4.33;3.67;;;;;;;15.80;68.17;96034.78;10354690;28;96986;-62
2022/09/01 00:47:40;;;;;;;3.97;3.38;;;;;;;15.74;68.10;96035.53;10357571;28;97498;-62
2022/09/01 00:52:47;;;;;;;4.03;3.15;;;;;;;15.69;68.33;96044.00;10355619;28;97349;-63
2022/09/01 00:57:51;;;;;;;3.47;2.90;;;;;;;15.56;68.65;96043.78;10364702;28;96907;-62
2022/09/01 01:02:55;;;;;;;3.58;3.20;;;;;;;15.50;68.95;96043.53;10358073;28;97188;-62
2022/09/01 01:08:01;;;;;;;4.00;3.60;;;;;;;15.50;68.46;96038.25;10359843;28;98864;-62
2022/09/01 01:13:07;;;;;;;6.82;3.80;;;;;;;15.41;69.11;96041.16;10376248;28;98108;-62
2022/09/01 01:18:11;;;;;;;6.47;3.90;;;;;;;15.27;69.85;96045.47;10339600;28;96724;-62
2022/09/01 01:23:22;;;;;;;4.30;3.53;;;;;;;15.16;69.94;96043.28;10372950;28;97100;-62
2022/09/01 01:28:30;;;;;;;4.38;3.28;;;;;;;15.13;69.91;96040.00;10395115;28;96685;-62
2022/09/01 01:33:39;;;;;;;7.95;4.90;;;;;;;15.06;69.30;96048.78;10355914;28;98906;-62
2022/09/01 01:38:47;;;;;;;9.45;5.32;;;;;;;15.04;69.54;96051.59;10354437;28;98520;-62
2022/09/01 01:43:52;;;;;;;6.38;4.65;;;;;;;15.06;70.22;96052.25;10358886;28;98657;-62
2022/09/01 01:48:55;;;;;;;8.23;5.17;;;;;;;14.98;69.95;96057.59;10354852;28;97775;-62
2022/09/01 01:54:04;;;;;;;9.35;4.85;;;;;;;14.91;70.34;96057.50;10358116;28;97888;-62
2022/09/01 01:59:15;;;;;;;6.72;4.63;;;;;;;14.82;70.16;96052.47;10360150;28;97368;-62
2022/09/01 02:04:20;;;;;;;6.78;4.60;;;;;;;14.74;70.38;96056.81;10361041;28;96868;-62
2022/09/01 02:09:23;;;;;;;;;;;;;;;14.65;69.96;96057.88;10361890;28;97936;-62
2022/09/01 02:14:27;;;;;;;6.85;4.15;;;;;;;14.48;70.58;96062.47;10341768;28;98879;-62
2022/09/01 02:19:30;;;;;;;7.03;4.73;;;;;;;14.30;70.90;96060.09;10349060;28;96805;-62
2022/09/01 02:24:33;;;;;;;5.80;3.70;;;;;;;14.32;70.58;96063.41;10361483;28;99246;-62
2022/09/01 02:29:37;;;;;;;8.38;4.57;;;;;;;14.28;71.28;96072.59;10377298;28;97623;-62
2022/09/01 02:34:52;;;;;;;6.88;3.92;;;;;;;14.19;71.27;96069.22;10361600;28;96782;-62
2022/09/01 02:39:56;;;;;;;6.93;4.35;;;;;;;14.18;72.32;96066.75;10362228;28;97864;-62
2022/09/01 02:45:00;;;;;;;10.10;5.82;;;;;;;14.16;72.01;96072.19;10377889;28;96820;-62
2022/09/01 02:50:05;;;;;;;10.85;5.72;;;;;;;14.14;72.19;96073.34;10355919;28;97053;-62
2022/09/01 02:55:09;;;;;;;11.80;6.10;;;;;;;14.10;71.38;96064.19;10361600;28;96910;-62
2022/09/01 03:00:21;;;;;;;10.80;5.82;;;;;;;14.09;72.16;96062.53;10361898;28;99201;-62
2022/09/01 03:05:27;;;;;;;12.00;6.53;;;;;;;14.01;71.88;96063.41;10367535;28;96726;-62
2022/09/01 03:10:35;;;;;;;13.80;6.90;;;;;;;14.06;71.61;96068.97;10361039;28;98762;-62
2022/09/01 03:15:40;;;;;;;11.93;6.22;;;;;;;14.04;71.92;96070.13;10378588;28;97389;-63
2022/09/01 03:20:45;;;;;;;;;;;;;;;13.88;71.69;96069.25;10351056;28;96866;-62
2022/09/01 03:25:48;;;;;;;12.15;5.38;;;;;;;13.79;71.71;96065.00;10364629;28;96866;-61
2022/09/01 03:30:55;;;;;;;9.30;5.32;;;;;;;13.69;72.13;96069.66;10366027;28;96791;-61
2022/09/01 03:35:58;;;;;;;6.35;4.78;;;;;;;13.61;71.50;96070.50;10347434;28;97574;-62
2022/09/01 03:41:03;;;;;;;10.60;4.97;;;;;;;13.59;71.92;96062.00;10363047;28;97128;-61
2022/09/01 03:46:08;;;;;;;6.90;4.82;;;;;;;13.55;72.35;96061.53;10353252;28;96828;-62
2022/09/01 03:51:13;;;;;;;9.45;5.82;;;;;;;13.52;72.48;96066.28;10370460;28;96653;-62
2022/09/01 03:56:15;;;;;;;6.60;5.27;;;;;;;13.44;73.18;96056.63;10356547;28;97244;-62
2022/09/01 04:01:20;;;;;;;6.95;4.60;;;;;;;13.34;73.24;96054.22;10353917;28;97303;-62
2022/09/01 04:06:23;;;;;;;5.25;4.60;;;;;;;13.30;72.24;96055.53;10354104;28;97460;-62
2022/09/01 04:11:26;;;;;;;8.75;5.47;;;;;;;13.24;73.33;96053.59;10357585;28;97661;-61
2022/09/01 04:21:58;;;;;;;5.75;4.88;;;;;;;13.08;74.53;96053.63;10372320;28;97431;-62
2022/09/01 04:27:03;;;;;;;6.95;5.00;;;;;;;13.06;74.57;96056.41;10353406;28;96841;-62
2022/09/01 04:32:11;;;;;;;6.78;5.13;;;;;;;13.17;74.71;96052.63;10373034;28;97488;-62
2022/09/01 04:37:19;;;;;;;5.30;4.80;;;;;;;13.24;74.12;96057.03;10366520;28;99030;-62
2022/09/01 04:42:23;;;;;;;8.80;5.97;;;;;;;13.22;74.33;96061.63;10363717;28;98019;-62
2022/09/01 04:47:29;;;;;;;6.37;5.20;;;;;;;13.18;74.59;96062.94;10347906;28;96841;-62
2022/09/01 04:52:37;;;;;;;6.80;5.90;;;;;;;13.09;74.07;96058.72;10356688;28;97217;-62
2022/09/01 04:57:41;;;;;;;8.23;6.05;;;;;;;13.06;74.97;96061.66;10350655;28;98647;-62
2022/09/01 05:02:45;;;;;;;7.75;5.40;;;;;;;13.01;74.47;96059.56;10348208;28;96789;-62
2022/09/01 05:07:54;;;;;;;11.02;6.72;;;;;;;13.06;75.07;96059.03;10368778;28;96844;-62
2022/09/01 05:12:57;;;;;;;14.15;9.40;;;;;;;13.08;75.26;96059.69;10357761;28;96907;-62
2022/09/01 05:18:08;;;;;;;14.68;8.10;;;;;;;13.15;75.40;96071.16;10342626;28;96796;-62
2022/09/01 05:23:12;;;;;;;9.10;6.88;;;;;;;13.18;75.20;96073.44;10343141;28;97669;-62
2022/09/01 05:28:17;;;;;;;7.85;6.35;;;;;;;13.21;75.66;96067.84;10352228;28;96875;-63
2022/09/01 05:33:22;;;;;;;8.13;6.78;;;;;;;13.32;75.44;96071.09;10398330;28;96726;-62
2022/09/01 05:38:25;;;;;;;10.63;6.15;;;;;;;13.35;75.38;96068.97;10354594;28;97852;-62
2022/09/01 05:43:29;;;;;;;7.13;5.32;;;;;;;13.43;75.03;96078.63;10346953;28;97149;-62
2022/09/01 05:48:38;;;;;;;8.47;5.10;;;;;;;13.57;74.68;96083.16;10343321;28;98803;-62
2022/09/01 05:53:42;;;;;;;8.30;5.50;;;;;;;13.72;74.67;96078.00;10345285;28;97331;-62
2022/09/01 05:58:47;;;;;;;5.82;5.18;;;;;;;13.90;73.66;96075.13;10361086;28;96847;-61
2022/09/01 06:04:12;;;;;;;6.07;5.17;;;;;;;14.06;73.54;96083.91;10374048;28;97501;-62
2022/09/01 06:09:22;;;;;;;5.88;4.82;;;;;;;14.09;72.81;96073.03;10340519;28;96962;-61
2022/09/01 06:14:25;;;;;;;8.18;6.45;;;;;;;14.26;73.57;96079.84;10354455;28;98578;-61
2022/09/01 06:19:32;;;;;;;8.38;5.47;;;;;;;14.46;73.47;96071.53;10388285;28;97064;-62
2022/09/01 06:24:39;;;;;;;7.30;5.20;;;;;;;14.58;72.99;96069.31;10404514;28;96846;-62
2022/09/01 06:29:48;;;;;;;6.15;5.32;;;;;;;14.63;72.60;96072.22;10344444;28;97058;-62
2022/09/01 06:34:52;;;;;;;8.07;5.65;;;;;;;14.76;73.24;96069.78;10354526;28;97596;-61
2022/09/01 06:39:56;;;;;;;6.87;5.20;;;;;;;14.91;72.56;96068.00;10363667;28;99260;-62
2022/09/01 06:44:59;;;;;;;6.60;5.33;;;;;;;15.04;72.56;96077.09;10371584;28;97916;-62
2022/09/01 06:50:07;;;;;;;7.28;5.45;;;;;;;15.27;72.56;96092.84;10381491;28;97098;-62
2022/09/01 06:55:10;;;;;;;6.38;5.28;;;;;;;15.43;71.75;96087.38;10382203;28;96708;-62
2022/09/01 07:00:18;;;;;;;8.68;5.80;;;;;;;15.53;71.70;96083.66;10381795;28;97010;-62
2022/09/01 07:05:23;;;;;;;9.30;6.38;;;;;;;15.69;71.70;96078.22;10382005;28;97335;-62
2022/09/01 07:10:49;;;;;;;7.72;6.65;;;;;;;15.87;71.64;96083.91;10381245;28;96950;-62
2022/09/01 07:16:16;;;;;;;;;;;;;;;16.14;70.87;96081.59;10382782;28;96853;-62
2022/09/01 07:21:39;;;;;;;8.48;7.57;;;;;;;16.22;70.42;96093.81;10378831;28;96786;-62
2022/09/01 07:27:02;;;;;;;8.07;6.17;;;;;;;16.40;69.86;96082.88;10381434;28;97362;-62
2022/09/01 07:32:16;;;;;;;7.35;6.50;;;;;;;16.58;69.67;96096.41;10380428;28;96917;-62
2022/09/01 07:37:40;;;;;;;7.00;6.28;;;;;;;16.74;68.68;96091.88;10378145;27;96894;-62
2022/09/01 07:43:07;;;;;;;7.43;6.38;;;;;;;16.79;68.97;96086.88;10385034;28;97355;-62
2022/09/01 07:48:09;;;;;;;6.95;5.50;;;;;;;16.89;67.58;96082.09;10339502;28;96747;-62
2022/09/01 07:53:17;;;;;;;6.20;5.60;;;;;;;17.06;67.10;96081.81;10339843;28;96753;-62
2022/09/01 07:58:22;;;;;;;5.90;5.30;;;;;;;17.19;66.47;96076.63;10339225;28;97123;-62
2022/09/01 08:03:25;;;;;;;6.05;5.43;;;;;;;17.19;65.44;96090.63;10355452;28;96732;-62
2022/09/01 08:08:29;;;;;;;7.82;5.40;;;;;;;17.16;65.04;96082.28;10380450;28;96745;-62
2022/09/01 08:13:33;;;;;;;5.65;5.05;;;;;;;17.15;65.29;96073.56;10380417;28;96603;-62
2022/09/01 08:18:44;;;;;;;7.15;5.65;;;;;;;17.24;65.64;96078.69;10380329;28;96782;-62
2022/09/01 08:23:54;;;;;;;6.57;5.63;;;;;;;17.27;65.44;96073.84;10379943;28;96700;-63
2022/09/01 08:28:57;;;;;;;8.60;5.93;;;;;;;17.43;64.97;96078.00;10380237;28;96745;-62
2022/09/01 08:34:00;;;;;;;6.57;4.93;;;;;;;17.56;64.45;96082.53;10402972;28;98048;-62
2022/09/01 08:39:05;;;;;;;7.30;5.47;;;;;;;17.64;64.28;96078.91;10386674;28;96913;-62
2022/09/01 08:44:13;;;;;;;;;;;;;;;17.71;64.25;96075.28;10376149;28;97332;-62
2022/09/01 08:49:19;;;;;;;6.57;5.75;;;;;;;17.80;64.01;96081.22;10339087;28;98043;-62
2022/09/01 08:54:39;;;;;;;5.93;5.33;;;;;;;17.89;63.84;96066.88;10337401;28;96806;-63
2022/09/01 08:59:42;;;;;;;5.97;4.88;;;;;;;17.97;63.54;96071.16;10337767;28;96769;-62
2022/09/01 09:04:58;;;;;;;8.68;5.47;;;;;;;18.15;62.53;96075.06;10366514;28;96774;-62
2022/09/01 09:10:11;;;;;;;7.05;6.20;;;;;;;18.28;63.54;96069.81;10378386;28;96841;-63
2022/09/01 09:15:24;;;;;;;6.93;6.15;;;;;;;18.44;63.54;96061.50;10378616;28;96626;-63
2022/09/01 09:20:28;;;;;;;5.97;5.35;;;;;;;18.57;63.21;96062.53;10378649;28;96694;-62
2022/09/01 09:25:32;;;;;;;6.33;5.73;;;;;;;18.68;63.42;96069.88;10378264;28;96812;-62
2022/09/01 09:30:36;;;;;;;7.30;5.50;;;;;;;18.90;62.44;96077.63;10378338;28;97795;-62
2022/09/01 09:35:42;;;;;;;6.80;5.20;;;;;;;18.97;62.61;96079.28;10413526;28;96786;-63
2022/09/01 09:40:58;;;;;;;6.80;5.28;;;;;;;19.04;61.64;96066.03;10377673;28;96797;-62
2022/09/01 09:46:25;;;;;;;8.23;5.80;;;;;;;19.16;61.32;96061.75;10377297;28;97504;-63
2022/09/01 09:51:28;;;;;;;6.53;5.07;;;;;;;19.24;61.82;96058.91;10377275;28;96822;-63
2022/09/01 09:56:32;;;;;;;6.68;4.90;;;;;;;19.43;61.28;96056.38;10383186;28;96740;-62
2022/09/01 10:01:35;;;;;;;7.47;5.30;;;;;;;19.63;61.37;96049.19;10384669;28;96617;-62
2022/09/01 10:06:40;;;;;;;5.80;5.18;;;;;;;19.72;60.63;96043.66;10384472;28;97291;-62
2022/09/01 10:11:50;;;;;;;5.40;4.88;;;;;;;19.84;61.20;96047.31;10383847;28;96840;-62
2022/09/01 10:16:58;;;;;;;8.20;5.47;;;;;;;19.92;60.21;96041.78;10384714;28;96675;-63
2022/09/01 10:22:03;;;;;;;9.18;5.82;;;;;;;19.96;60.98;96040.31;10384373;28;96884;-63
2022/09/01 10:27:15;;;;;;;5.15;4.65;;;;;;;20.27;60.12;96040.56;10384351;28;96780;-62
2022/09/01 10:32:22;;;;;;;5.65;4.75;;;;;;;20.46;59.57;96033.50;10394634;28;96713;-63
2022/09/01 10:37:46;;;;;;;5.55;4.68;;;;;;;20.62;59.25;96048.09;10404034;28;97848;-63
2022/09/01 10:42:54;;;;;;;5.55;4.80;;;;;;;20.62;58.86;96032.97;10383720;28;96766;-62
2022/09/01 10:47:57;;;;;;;5.50;5.00;;;;;;;20.72;58.63;96038.63;10379385;28;97159;-62
2022/09/01 10:53:06;;;;;;;5.40;4.53;;;;;;;21.01;57.46;96035.53;10383304;28;96628;-63
2022/09/01 10:58:34;;;;;;;6.78;5.20;;;;;;;21.12;57.72;96033.00;10382818;28;96773;-62
2022/09/01 11:03:57;;;;;;;9.30;5.28;;;;;;;21.19;57.22;96032.09;10364974;28;97876;-63
2022/09/01 11:09:06;;;;;;;4.75;4.28;;;;;;;21.30;56.59;96020.75;10383055;28;97774;-63
2022/09/01 11:14:20;;;;;;;4.57;4.15;;;;;;;21.42;55.98;96015.53;10355734;28;97177;-63
2022/09/01 11:19:44;;;;;;;4.97;4.47;;;;;;;21.40;55.79;96014.94;10350805;28;97277;-62
2022/09/01 11:25:04;;;;;;;5.90;4.20;;;;;;;21.57;56.13;96023.09;10346335;28;98479;-63
2022/09/01 11:30:20;;;;;;;4.85;4.32;;;;;;;21.72;55.47;96015.59;10342225;28;97595;-63
2022/09/01 11:35:26;;;;;;;4.32;3.92;;;;;;;21.79;55.05;96013.66;10363286;28;97763;-63
2022/09/01 11:40:32;;;;;;;8.43;4.50;;;;;;;21.82;54.94;96004.44;10380368;28;97059;-62
2022/09/01 11:45:44;;;;;;;4.65;4.05;;;;;;;21.93;54.62;95995.69;10354598;28;96698;-62
2022/09/01 11:50:58;;;;;;;5.90;4.65;;;;;;;22.10;54.40;95990.56;10339350;28;98206;-63
2022/09/01 11:56:12;;;;;;;;;;;;;;;22.15;54.83;95992.53;10339798;28;97218;-62
2022/09/01 12:01:19;;;;;;;7.28;4.63;;;;;;;22.33;54.08;95986.34;10343158;28;98621;-63
2022/09/01 12:06:25;;;;;;;5.28;4.30;;;;;;;22.51;53.22;95969.50;10380719;28;97099;-63
2022/09/01 12:11:30;;;;;;;4.53;3.92;;;;;;;22.60;52.24;95965.47;10379944;28;97164;-62
2022/09/01 12:16:38;;;;;;;4.75;3.80;;;;;;;22.69;52.14;95960.63;10377020;28;96630;-63
2022/09/01 12:21:43;;;;;;;4.78;3.72;;;;;;;22.79;52.49;95971.50;10337511;28;96745;-63
2022/09/01 12:26:47;;;;;;;4.85;4.35;;;;;;;22.78;51.62;95973.34;10338256;28;96746;-63
2022/09/01 12:31:54;;;;;;;4.68;3.75;;;;;;;22.98;50.93;95959.69;10348932;28;96907;-63
2022/09/01 12:37:18;;;;;;;5.35;3.80;;;;;;;23.10;51.65;95961.50;10377932;28;96728;-63
2022/09/01 12:42:28;;;;;;;4.20;3.80;;;;;;;23.11;51.21;95957.81;10379145;28;96722;-63
2022/09/01 12:47:49;;;;;;;5.65;3.58;;;;;;;23.22;50.50;95962.31;10378750;28;98119;-63
2022/09/01 12:52:54;;;;;;;5.82;4.25;;;;;;;23.24;49.90;95968.22;10358050;28;96653;-63
2022/09/01 12:57:59;;;;;;;4.25;3.85;;;;;;;23.25;50.79;95961.03;10337796;28;96711;-62
2022/09/01 13:03:13;;;;;;;3.55;3.10;;;;;;;23.61;50.20;95967.94;10357855;28;96774;-63
2022/09/01 13:08:18;;;;;;;6.25;3.45;;;;;;;23.91;49.71;95966.88;10370762;28;96949;-63
2022/09/01 13:13:23;;;;;;;4.03;3.55;;;;;;;24.05;48.77;95960.22;10364475;28;96915;-63
2022/09/01 13:18:29;;;;;;;4.18;3.70;;;;;;;23.90;48.90;95959.94;10378417;28;96695;-63
2022/09/01 13:23:32;;;;;;;6.20;3.80;;;;;;;24.11;48.39;95959.28;10378160;28;96687;-63
2022/09/01 13:28:34;;;;;;;8.88;4.90;;;;;;;23.94;48.25;95961.06;10345537;28;96738;-63
2022/09/01 13:33:43;;;;;;;3.40;3.10;;;;;;;24.15;49.25;95951.59;10372054;28;97089;-63
2022/09/01 13:39:06;;;;;;;5.93;3.72;;;;;;;24.79;47.27;95948.63;10384524;28;96968;-63
2022/09/01 13:44:10;;;;;;;4.63;4.17;;;;;;;24.60;46.76;95940.03;10361103;28;96937;-63
2022/09/01 13:49:14;;;;;;;3.83;3.43;;;;;;;24.50;47.46;95939.88;10344050;28;96905;-63
2022/09/01 13:54:37;;;;;;;4.13;3.72;;;;;;;24.58;46.80;95939.50;10343135;28;97530;-63
2022/09/01 13:59:40;;;;;;;4.82;3.40;;;;;;;24.84;46.06;95938.03;10343233;28;96721;-63
2022/09/01 14:04:44;;;;;;;5.35;4.00;;;;;;;25.27;45.33;95945.53;10379238;28;97233;-63
2022/09/01 14:09:47;;;;;;;4.07;3.35;;;;;;;25.57;44.85;95935.25;10383433;28;97350;-63
2022/09/01 14:14:50;;;;;;;3.65;3.03;;;;;;;26.10;44.20;95932.03;10357340;28;96788;-63
2022/09/01 14:20:18;;;;;;;4.68;3.35;;;;;;;26.51;43.54;95927.06;10382049;28;96786;-63
2022/09/01 14:25:20;;;;;;;4.60;3.58;;;;;;;26.18;43.56;95940.41;10383461;28;97306;-63
2022/09/01 14:30:25;;;;;;;4.93;4.07;;;;;;;25.62;43.80;95931.84;10382060;28;96933;-63
2022/09/01 14:35:37;;;;;;;4.95;3.70;;;;;;;25.04;44.27;95931.34;10371543;28;96690;-63
2022/09/01 14:40:41;;;;;;;3.90;3.25;;;;;;;24.77;44.82;95926.69;10382273;28;97193;-63
2022/09/01 14:45:47;;;;;;;5.53;3.90;;;;;;;24.31;45.99;95924.13;10360321;28;97283;-63
2022/09/01 14:50:51;;;;;;;5.07;3.63;;;;;;;24.19;46.36;95917.22;10352965;28;96990;-63
2022/09/01 14:55:54;;;;;;;9.30;4.85;;;;;;;24.26;54.86;95917.88;10381830;28;96829;-63
2022/09/01 15:00:58;;;;;;;6.60;4.47;;;;;;;24.06;53.07;95921.84;10373975;28;96652;-63
2022/09/01 15:06:23;;;;;;;8.30;4.60;;;;;;;23.85;52.87;95935.84;10340682;28;97017;-64
2022/09/01 15:11:27;;;;;;;10.25;5.82;;;;;;;23.98;58.90;95924.84;10381027;28;96822;-63
2022/09/01 15:16:29;;;;;;;;;;;;;;;23.81;56.67;95930.19;10341203;28;97070;-64
2022/09/01 15:21:34;;;;;;;8.82;5.60;;;;;;;23.25;58.25;95913.88;10340576;28;96701;-63
2022/09/01 15:26:39;;;;;;;9.18;6.38;;;;;;;22.89;62.42;95929.13;10340384;28;97383;-63
2022/09/01 15:31:44;;;;;;;10.90;5.95;;;;;;;22.68;61.33;95929.69;10353562;28;97223;-63
2022/09/01 15:36:49;;;;;;;9.77;6.50;;;;;;;22.61;62.82;95914.66;10381159;28;96794;-64
2022/09/01 15:41:52;;;;;;;;;;;;;;;22.55;60.89;95922.75;10368865;28;98285;-63
2022/09/01 15:46:55;;;;;;;11.88;6.80;;;;;;;22.36;61.82;95914.03;10339194;28;96675;-63
2022/09/01 15:51:59;;;;;;;9.10;5.65;;;;;;;22.04;59.74;95922.31;10337947;28;97871;-63
2022/09/01 15:57:02;;;;;;;;;;;;;;;21.77;60.39;95928.00;10338793;28;96993;-64
2022/09/01 16:02:06;;;;;;;7.07;5.80;;;;;;;21.67;61.46;95922.41;10344972;28;98472;-63
2022/09/01 16:07:10;;;;;;;9.23;7.00;;;;;;;21.48;63.58;95913.63;10359685;28;97822;-63
2022/09/01 16:12:13;;;;;;;7.47;6.18;;;;;;;21.37;62.40;95923.19;10353025;28;97821;-63
2022/09/01 16:17:21;;;;;;;7.60;5.75;;;;;;;21.33;62.09;95930.00;10359551;28;96767;-63
2022/09/01 16:22:28;;;;;;;8.98;7.00;;;;;;;21.27;62.58;95918.38;10376121;28;96847;-63
2022/09/01 16:27:35;;;;;;;8.32;6.93;;;;;;;21.28;63.41;95919.22;10379717;28;96675;-63
2022/09/01 16:32:40;;;;;;;9.15;7.22;;;;;;;21.09;65.44;95905.94;10368396;28;96772;-63
2022/09/01 16:37:54;;;;;;;10.23;7.38;;;;;;;21.11;66.21;95903.06;10357112;28;97825;-63
2022/09/01 16:43:04;;;;;;;8.53;7.07;;;;;;;21.04;67.68;95912.94;10367075;28;97452;-63
2022/09/01 16:48:18;;;;;;;11.45;7.93;;;;;;;20.77;69.28;95917.72;10337615;28;96948;-63
2022/09/01 16:53:38;;;;;;;7.90;7.10;;;;;;;20.62;70.32;95920.72;10340855;28;97142;-63
2022/09/01 16:58:52;;;;;;;8.35;7.40;;;;;;;20.49;70.65;95914.47;10337308;28;96689;-63
2022/09/01 17:04:02;;;;;;;;;;;;;;;20.24;69.62;95914.50;10337387;28;96677;-63
2022/09/01 17:09:11;;;;;;;8.15;7.10;;;;;;;20.00;71.06;95918.75;10366997;28;97072;-63
2022/09/01 17:14:24;;;;;;;7.03;6.00;;;;;;;19.96;69.99;95909.63;10378324;28;96775;-63
2022/09/01 17:19:28;;;;;;;7.05;6.45;;;;;;;19.90;70.16;95916.56;10373216;28;96818;-63
2022/09/01 17:24:37;;;;;;;10.93;6.57;;;;;;;19.69;70.78;95908.94;10353750;28;97451;-63
2022/09/01 17:29:43;;;;;;;11.07;7.13;;;;;;;19.38;71.31;95899.91;10375462;28;96779;-63
2022/09/01 17:34:53;;;;;;;11.80;8.02;;;;;;;19.27;71.41;95900.59;10377500;28;96794;-63
2022/09/01 17:40:05;;;;;;;9.48;6.63;;;;;;;19.25;71.27;95895.50;10374420;28;97959;-63
2022/09/01 17:45:14;;;;;;;8.65;6.60;;;;;;;19.22;71.25;95907.31;10336417;28;96688;-63
2022/09/01 17:50:22;;;;;;;7.25;6.25;;;;;;;19.13;72.16;95902.50;10346620;28;97140;-63
2022/09/01 17:55:41;;;;;;;10.30;6.13;;;;;;;19.08;71.70;95905.75;10377303;28;97292;-63
2022/09/01 18:00:56;;;;;;;7.50;5.78;;;;;;;18.99;71.17;95904.38;10340891;28;97174;-63
2022/09/01 18:06:03;;;;;;;;;;;;;;;18.94;70.48;95898.88;10336604;28;96739;-63
2022/09/01 18:11:11;;;;;;;5.38;4.38;;;;;;;18.86;70.53;95903.38;10335631;28;96751;-63
2022/09/01 18:16:17;;;;;;;6.10;4.78;;;;;;;18.62;70.10;95894.25;10341813;28;96796;-62
2022/09/01 18:21:23;;;;;;;4.90;4.40;;;;;;;18.57;69.45;95901.16;10359122;28;96837;-62
2022/09/01 18:26:31;;;;;;;7.55;4.35;;;;;;;18.55;69.40;95897.91;10383900;28;96760;-62
2022/09/01 18:32:03;;;;;;;4.38;3.45;;;;;;;18.53;69.60;95897.31;10373616;28;96772;-63
2022/09/01 18:37:13;;;;;;;5.47;4.93;;;;;;;18.27;71.03;95912.19;10357491;28;96729;-62
2022/09/01 18:42:25;;;;;;;4.53;4.10;;;;;;;18.03;69.77;95914.44;10382858;28;97072;-63
2022/09/01 18:47:31;;;;;;;6.68;3.95;;;;;;;17.97;69.29;95917.88;10381945;28;96758;-63
2022/09/01 18:52:57;;;;;;;5.30;4.00;;;;;;;17.97;68.60;95925.78;10373525;28;96871;-62
2022/09/01 18:58:06;;;;;;;4.80;4.30;;;;;;;17.85;68.53;95937.97;10383008;28;96880;-62
2022/09/01 19:03:19;;;;;;;6.13;4.18;;;;;;;17.55;69.30;95938.28;10382368;28;96827;-62
2022/09/01 19:08:37;;;;;;;5.00;3.60;;;;;;;17.31;69.39;95937.78;10349401;28;97176;-62
2022/09/01 19:13:53;;;;;;;6.43;3.15;;;;;;;17.21;68.15;95947.91;10343010;28;97188;-63
2022/09/01 19:19:03;;;;;;;4.47;3.17;;;;;;;17.15;68.15;95959.25;10344061;28;96873;-62
2022/09/01 19:24:11;;;;;;;4.47;3.65;;;;;;;17.03;68.51;95960.81;10359293;28;96952;-62
2022/09/01 19:29:19;;;;;;;3.33;3.03;;;;;;;16.81;68.57;95952.97;10340053;28;96641;-62
2022/09/01 19:34:26;;;;;;;4.07;3.67;;;;;;;16.70;68.90;95961.41;10339954;28;96957;-62
2022/09/01 19:39:32;;;;;;;3.38;2.90;;;;;;;16.57;68.24;95957.66;10365383;28;96800;-62
2022/09/01 19:44:43;;;;;;;3.40;2.95;;;;;;;16.54;68.24;95971.22;10345441;28;96841;-62
2022/09/01 19:49:52;;;;;;;3.95;3.30;;;;;;;16.46;68.30;95952.91;10379665;28;96911;-62
2022/09/01 19:55:01;;;;;;;3.83;3.20;;;;;;;16.33;68.50;95958.06;10376058;28;96856;-62
2022/09/01 20:00:14;;;;;;;4.15;3.35;;;;;;;16.12;68.91;95965.00;10381575;28;97449;-62
2022/09/01 20:05:30;;;;;;;3.90;2.67;;;;;;;15.96;69.79;95967.88;10380427;28;96776;-62
2022/09/01 20:10:48;;;;;;;4.85;3.53;;;;;;;15.74;70.35;95946.81;10351840;28;96760;-62
2022/09/01 20:16:08;;;;;;;4.05;3.15;;;;;;;15.61;70.63;95958.00;10374893;28;96988;-62
2022/09/01 20:21:12;;;;;;;4.43;3.50;;;;;;;15.39;71.83;95959.78;10347051;28;97838;-63
2022/09/01 20:26:26;;;;;;;4.18;2.67;;;;;;;15.29;71.18;95964.50;10344733;28;96958;-62
2022/09/01 20:31:35;;;;;;;3.50;2.92;;;;;;;15.23;71.43;95955.50;10339245;28;98412;-62
2022/09/01 20:36:43;;;;;;;4.60;3.17;;;;;;;15.21;71.25;95972.50;10343065;28;97601;-62
2022/09/01 20:41:56;;;;;;;5.30;3.47;;;;;;;15.09;73.05;95961.63;10338215;28;97817;-62
2022/09/01 20:47:00;;;;;;;3.40;2.55;;;;;;;15.05;72.15;95961.16;10356117;28;97236;-62
2022/09/01 20:52:10;;;;;;;3.30;2.50;;;;;;;15.06;71.94;95960.19;10349927;28;97148;-62
2022/09/01 20:57:26;;;;;;;4.35;2.92;;;;;;;15.06;72.00;95962.81;10345499;28;98262;-63
2022/09/01 21:02:41;;;;;;;4.85;2.80;;;;;;;14.99;72.56;95953.19;10345253;28;96896;-63
2022/09/01 21:07:46;;;;;;;;;;;;;;;14.90;72.10;95960.34;10356279;28;97158;-62
2022/09/01 21:12:52;;;;;;;3.72;2.60;;;;;;;14.86;72.53;95966.97;10360635;28;98735;-62
2022/09/01 21:18:09;;;;;;;4.78;4.15;;;;;;;14.72;73.20;95958.09;10356447;28;97037;-63
2022/09/01 21:23:14;;;;;;;6.40;3.63;;;;;;;14.66;73.31;95971.94;10355951;28;97249;-63
2022/09/01 21:28:20;;;;;;;3.70;2.85;;;;;;;14.60;73.58;95973.47;10362620;28;98714;-63
2022/09/01 21:33:26;;;;;;;4.38;2.90;;;;;;;14.54;73.80;95976.81;10374181;28;96906;-62
2022/09/01 21:38:29;;;;;;;5.68;3.00;;;;;;;14.46;74.23;95974.28;10374859;28;96999;-62
2022/09/01 21:43:36;;;;;;;6.93;3.15;;;;;;;14.42;73.93;95978.25;10370228;28;97623;-63
2022/09/01 21:48:40;;;;;;;4.88;3.20;;;;;;;14.39;74.49;95976.81;10351814;28;98474;-62
2022/09/01 21:53:43;;;;;;;7.33;3.87;;;;;;;14.25;74.38;95978.38;10363311;28;98449;-62
2022/09/01 21:58:46;;;;;;;5.32;3.65;;;;;;;14.23;74.66;95988.25;10364911;28;98624;-63
2022/09/01 22:03:53;;;;;;;3.70;2.78;;;;;;;14.23;74.39;95974.25;10356449;28;98077;-62
2022/09/01 22:08:56;;;;;;;5.57;2.90;;;;;;;14.18;74.27;95980.06;10354101;28;98437;-63
2022/09/01 22:14:00;;;;;;;3.63;3.15;;;;;;;14.14;74.01;95981.41;10377143;28;97116;-63
2022/09/01 22:19:05;;;;;;;5.20;3.25;;;;;;;14.09;75.13;95981.09;10383352;28;97790;-62
2022/09/01 22:24:09;;;;;;;5.07;3.35;;;;;;;14.08;74.52;95976.88;10375632;28;98986;-62
2022/09/01 22:29:12;;;;;;;4.13;2.80;;;;;;;14.08;74.07;95974.22;10355729;28;96857;-62
2022/09/01 22:34:17;;;;;;;5.45;3.58;;;;;;;14.04;74.07;95980.81;10378827;28;98079;-63
2022/09/01 22:39:20;;;;;;;5.30;3.67;;;;;;;13.96;75.02;95985.13;10389623;28;96903;-62
2022/09/01 22:44:26;;;;;;;5.90;3.63;;;;;;;13.96;74.94;95973.81;10399622;27;97451;-62
2022/09/01 22:49:31;;;;;;;6.70;3.03;;;;;;;13.97;74.47;95980.72;10341034;28;98647;-63
2022/09/01 22:54:34;;;;;;;4.78;3.20;;;;;;;13.90;75.44;95980.59;10345659;28;97221;-62
2022/09/01 22:59:40;;;;;;;6.10;3.00;;;;;;;13.91;75.40;95989.28;10343698;28;97809;-62
2022/09/01 23:04:45;;;;;;;3.63;3.00;;;;;;;13.92;75.38;95977.81;10355866;28;97838;-62
2022/09/01 23:09:48;;;;;;;;;;;;;;;13.91;74.32;95982.22;10347649;28;98513;-63
2022/09/01 23:14:52;;;;;;;3.92;3.33;;;;;;;13.88;75.02;95985.22;10353620;28;97899;-62
2022/09/01 23:20:01;;;;;;;4.60;3.10;;;;;;;13.86;75.18;95984.56;10348951;28;98883;-62
2022/09/01 23:25:04;;;;;;;4.53;3.60;;;;;;;13.81;74.50;95979.00;10344578;28;96852;-62
2022/09/01 23:30:10;;;;;;;4.95;3.20;;;;;;;13.78;74.99;95976.75;10343063;28;98633;-62
2022/09/01 23:35:14;;;;;;;4.38;3.25;;;;;;;13.81;74.80;95979.00;10365921;28;98576;-62
2022/09/01 23:40:18;;;;;;;3.70;3.30;;;;;;;13.81;74.74;95971.13;10356361;28;98749;-63
2022/09/01 23:45:21;;;;;;;5.30;3.75;;;;;;;13.82;75.63;95972.78;10354636;28;97545;-63
2022/09/01 23:50:25;;;;;;;7.13;4.05;;;;;;;13.86;74.89;95963.53;10343207;28;96875;-62
2022/09/01 23:55:28;;;;;;;4.47;3.53;;;;;;;13.91;74.99;95971.72;10343264;28;96804;-61
